sensor_id;sensor_type;location;lat;lon;timestamp;P1;durP1;ratioP1;P2;durP2;ratioP2
17592;SDS011;8915;51.760;14.300;2023-08-20T00:02:18;13.20;;;11.17;;
17592;SDS011;8915;51.760;14.300;2023-08-20T00:04:49;12.27;;;10.63;;
17592;SDS011;8915;51.760;14.300;2023-08-20T00:07:16;13.30;;;11.90;;
17592;SDS011;8915;51.760;14.300;2023-08-20T00:09:43;14.23;;;12.13;;
17592;SDS011;8915;51.760;14.300;2023-08-20T00:12:10;13.30;;;11.80;;
17592;SDS011;8915;51.760;14.300;2023-08-20T00:17:32;13.07;;;11.10;;
17592;SDS011;8915;51.760;14.300;2023-08-20T00:19:59;12.87;;;11.10;;
17592;SDS011;8915;51.760;14.300;2023-08-20T00:22:26;14.10;;;12.23;;
17592;SDS011;8915;51.760;14.300;2023-08-20T00:24:53;16.27;;;12.87;;
17592;SDS011;8915;51.760;14.300;2023-08-20T00:27:20;13.00;;;11.60;;
17592;SDS011;8915;51.760;14.300;2023-08-20T00:29:47;17.00;;;12.33;;
17592;SDS011;8915;51.760;14.300;2023-08-20T00:32:14;12.03;;;10.83;;
17592;SDS011;8915;51.760;14.300;2023-08-20T00:34:42;12.37;;;10.83;;
17592;SDS011;8915;51.760;14.300;2023-08-20T00:37:10;14.83;;;12.13;;
17592;SDS011;8915;51.760;14.300;2023-08-20T00:39:37;12.20;;;10.90;;
17592;SDS011;8915;51.760;14.300;2023-08-20T00:42:03;15.77;;;12.33;;
17592;SDS011;8915;51.760;14.300;2023-08-20T00:44:30;12.20;;;10.93;;
17592;SDS011;8915;51.760;14.300;2023-08-20T00:46:56;12.87;;;11.43;;
17592;SDS011;8915;51.760;14.300;2023-08-20T00:49:25;12.17;;;10.97;;
17592;SDS011;8915;51.760;14.300;2023-08-20T00:51:53;13.27;;;11.87;;
17592;SDS011;8915;51.760;14.300;2023-08-20T00:54:19;12.73;;;11.30;;
17592;SDS011;8915;51.760;14.300;2023-08-20T00:56:46;12.93;;;10.87;;
17592;SDS011;8915;51.760;14.300;2023-08-20T00:59:14;12.37;;;11.07;;
17592;SDS011;8915;51.760;14.300;2023-08-20T01:01:43;13.67;;;11.83;;
17592;SDS011;8915;51.760;14.300;2023-08-20T01:04:09;13.63;;;11.80;;
17592;SDS011;8915;51.760;14.300;2023-08-20T01:06:37;12.73;;;11.43;;
17592;SDS011;8915;51.760;14.300;2023-08-20T01:09:26;17.70;;;13.33;;
17592;SDS011;8915;51.760;14.300;2023-08-20T01:12:04;13.20;;;11.80;;
17592;SDS011;8915;51.760;14.300;2023-08-20T01:14:32;17.43;;;13.33;;
17592;SDS011;8915;51.760;14.300;2023-08-20T01:16:58;13.47;;;12.07;;
17592;SDS011;8915;51.760;14.300;2023-08-20T01:19:25;15.57;;;13.27;;
17592;SDS011;8915;51.760;14.300;2023-08-20T01:21:58;13.23;;;11.83;;
17592;SDS011;8915;51.760;14.300;2023-08-20T01:24:42;15.93;;;13.07;;
17592;SDS011;8915;51.760;14.300;2023-08-20T01:27:23;14.77;;;13.27;;
17592;SDS011;8915;51.760;14.300;2023-08-20T01:29:59;15.53;;;13.30;;
17592;SDS011;8915;51.760;14.300;2023-08-20T01:32:26;15.27;;;12.93;;
17592;SDS011;8915;51.760;14.300;2023-08-20T01:34:53;15.67;;;11.70;;
17592;SDS011;8915;51.760;14.300;2023-08-20T01:37:19;14.93;;;13.13;;
17592;SDS011;8915;51.760;14.300;2023-08-20T01:39:48;15.60;;;12.60;;
17592;SDS011;8915;51.760;14.300;2023-08-20T01:42:14;13.83;;;12.33;;
17592;SDS011;8915;51.760;14.300;2023-08-20T01:44:40;14.57;;;12.33;;
17592;SDS011;8915;51.760;14.300;2023-08-20T01:47:08;18.40;;;13.50;;
17592;SDS011;8915;51.760;14.300;2023-08-20T01:49:35;16.10;;;13.50;;
17592;SDS011;8915;51.760;14.300;2023-08-20T01:52:01;12.30;;;11.10;;
17592;SDS011;8915;51.760;14.300;2023-08-20T01:54:28;15.93;;;12.85;;
17592;SDS011;8915;51.760;14.300;2023-08-20T01:56:55;13.23;;;11.83;;
17592;SDS011;8915;51.760;14.300;2023-08-20T01:59:22;16.83;;;13.10;;
17592;SDS011;8915;51.760;14.300;2023-08-20T02:01:48;13.38;;;12.05;;
17592;SDS011;8915;51.760;14.300;2023-08-20T02:04:16;14.53;;;12.97;;
17592;SDS011;8915;51.760;14.300;2023-08-20T02:06:42;17.40;;;12.43;;
17592;SDS011;8915;51.760;14.300;2023-08-20T02:09:09;14.43;;;12.93;;
17592;SDS011;8915;51.760;14.300;2023-08-20T02:11:35;14.73;;;13.13;;
17592;SDS011;8915;51.760;14.300;2023-08-20T02:14:02;14.35;;;12.85;;
17592;SDS011;8915;51.760;14.300;2023-08-20T02:16:28;14.50;;;12.95;;
17592;SDS011;8915;51.760;14.300;2023-08-20T02:18:55;13.60;;;12.25;;
17592;SDS011;8915;51.760;14.300;2023-08-20T02:21:22;14.93;;;13.20;;
17592;SDS011;8915;51.760;14.300;2023-08-20T02:23:49;13.87;;;12.03;;
17592;SDS011;8915;51.760;14.300;2023-08-20T02:26:16;14.00;;;12.40;;
17592;SDS011;8915;51.760;14.300;2023-08-20T02:28:42;15.07;;;12.97;;
17592;SDS011;8915;51.760;14.300;2023-08-20T02:31:09;12.77;;;11.47;;
17592;SDS011;8915;51.760;14.300;2023-08-20T02:33:35;13.97;;;12.57;;
17592;SDS011;8915;51.760;14.300;2023-08-20T02:36:02;14.40;;;13.00;;
17592;SDS011;8915;51.760;14.300;2023-08-20T02:38:30;15.30;;;13.27;;
17592;SDS011;8915;51.760;14.300;2023-08-20T02:40:57;14.87;;;13.20;;
17592;SDS011;8915;51.760;14.300;2023-08-20T02:43:23;15.00;;;13.40;;
17592;SDS011;8915;51.760;14.300;2023-08-20T02:45:49;14.47;;;12.97;;
17592;SDS011;8915;51.760;14.300;2023-08-20T02:48:17;14.00;;;12.53;;
17592;SDS011;8915;51.760;14.300;2023-08-20T02:50:43;15.63;;;14.03;;
17592;SDS011;8915;51.760;14.300;2023-08-20T02:53:10;15.90;;;14.27;;
17592;SDS011;8915;51.760;14.300;2023-08-20T02:55:37;13.67;;;12.27;;
17592;SDS011;8915;51.760;14.300;2023-08-20T02:58:04;14.33;;;12.70;;
17592;SDS011;8915;51.760;14.300;2023-08-20T03:00:32;15.70;;;13.27;;
17592;SDS011;8915;51.760;14.300;2023-08-20T03:02:59;16.57;;;12.83;;
17592;SDS011;8915;51.760;14.300;2023-08-20T03:05:26;14.60;;;12.97;;
17592;SDS011;8915;51.760;14.300;2023-08-20T03:07:52;14.57;;;13.17;;
17592;SDS011;8915;51.760;14.300;2023-08-20T03:10:18;15.73;;;12.97;;
17592;SDS011;8915;51.760;14.300;2023-08-20T03:12:46;17.00;;;12.70;;
17592;SDS011;8915;51.760;14.300;2023-08-20T03:15:13;16.67;;;14.87;;
17592;SDS011;8915;51.760;14.300;2023-08-20T03:17:39;17.37;;;13.43;;
17592;SDS011;8915;51.760;14.300;2023-08-20T03:20:06;15.40;;;13.30;;
17592;SDS011;8915;51.760;14.300;2023-08-20T03:22:36;14.77;;;13.27;;
17592;SDS011;8915;51.760;14.300;2023-08-20T03:25:03;15.80;;;13.33;;
17592;SDS011;8915;51.760;14.300;2023-08-20T03:27:30;16.73;;;14.97;;
17592;SDS011;8915;51.760;14.300;2023-08-20T03:29:58;16.03;;;14.43;;
17592;SDS011;8915;51.760;14.300;2023-08-20T03:32:24;15.97;;;14.27;;
17592;SDS011;8915;51.760;14.300;2023-08-20T03:34:51;15.30;;;13.70;;
17592;SDS011;8915;51.760;14.300;2023-08-20T03:37:18;16.60;;;14.87;;
17592;SDS011;8915;51.760;14.300;2023-08-20T03:39:45;16.13;;;14.43;;
17592;SDS011;8915;51.760;14.300;2023-08-20T03:42:11;16.60;;;15.00;;
17592;SDS011;8915;51.760;14.300;2023-08-20T03:44:37;17.57;;;15.20;;
17592;SDS011;8915;51.760;14.300;2023-08-20T03:47:05;18.40;;;15.20;;
17592;SDS011;8915;51.760;14.300;2023-08-20T03:49:32;17.37;;;15.40;;
17592;SDS011;8915;51.760;14.300;2023-08-20T03:52:00;20.70;;;16.70;;
17592;SDS011;8915;51.760;14.300;2023-08-20T03:54:27;18.33;;;16.40;;
17592;SDS011;8915;51.760;14.300;2023-08-20T03:56:55;19.00;;;16.90;;
17592;SDS011;8915;51.760;14.300;2023-08-20T03:59:22;18.83;;;16.80;;
17592;SDS011;8915;51.760;14.300;2023-08-20T04:01:49;17.93;;;16.03;;
17592;SDS011;8915;51.760;14.300;2023-08-20T04:04:16;19.27;;;16.40;;
17592;SDS011;8915;51.760;14.300;2023-08-20T04:06:43;17.83;;;16.03;;
17592;SDS011;8915;51.760;14.300;2023-08-20T04:09:09;19.40;;;17.33;;
17592;SDS011;8915;51.760;14.300;2023-08-20T04:11:36;18.77;;;16.47;;
17592;SDS011;8915;51.760;14.300;2023-08-20T04:14:02;18.80;;;16.80;;
17592;SDS011;8915;51.760;14.300;2023-08-20T04:16:30;20.83;;;17.43;;
17592;SDS011;8915;51.760;14.300;2023-08-20T04:18:56;18.63;;;16.67;;
17592;SDS011;8915;51.760;14.300;2023-08-20T04:21:24;17.50;;;15.60;;
17592;SDS011;8915;51.760;14.300;2023-08-20T04:23:51;19.33;;;17.23;;
17592;SDS011;8915;51.760;14.300;2023-08-20T04:26:17;19.70;;;17.10;;
17592;SDS011;8915;51.760;14.300;2023-08-20T04:28:44;18.03;;;16.20;;
17592;SDS011;8915;51.760;14.300;2023-08-20T04:31:10;19.47;;;16.93;;
17592;SDS011;8915;51.760;14.300;2023-08-20T04:33:46;18.63;;;16.27;;
17592;SDS011;8915;51.760;14.300;2023-08-20T04:36:17;20.00;;;17.20;;
17592;SDS011;8915;51.760;14.300;2023-08-20T04:38:45;19.27;;;17.17;;
17592;SDS011;8915;51.760;14.300;2023-08-20T04:41:11;18.63;;;16.73;;
17592;SDS011;8915;51.760;14.300;2023-08-20T04:43:38;18.77;;;16.43;;
17592;SDS011;8915;51.760;14.300;2023-08-20T04:46:04;18.37;;;16.43;;
17592;SDS011;8915;51.760;14.300;2023-08-20T04:48:30;21.47;;;16.97;;
17592;SDS011;8915;51.760;14.300;2023-08-20T04:51:01;17.63;;;15.87;;
17592;SDS011;8915;51.760;14.300;2023-08-20T04:53:28;17.77;;;15.97;;
17592;SDS011;8915;51.760;14.300;2023-08-20T04:55:57;18.57;;;16.30;;
17592;SDS011;8915;51.760;14.300;2023-08-20T04:58:24;18.43;;;16.33;;
17592;SDS011;8915;51.760;14.300;2023-08-20T05:00:51;20.97;;;16.30;;
17592;SDS011;8915;51.760;14.300;2023-08-20T05:03:17;20.57;;;16.63;;
17592;SDS011;8915;51.760;14.300;2023-08-20T05:05:47;19.33;;;17.13;;
17592;SDS011;8915;51.760;14.300;2023-08-20T05:08:14;18.57;;;16.40;;
17592;SDS011;8915;51.760;14.300;2023-08-20T05:10:41;17.20;;;15.33;;
17592;SDS011;8915;51.760;14.300;2023-08-20T05:13:09;18.60;;;16.60;;
17592;SDS011;8915;51.760;14.300;2023-08-20T05:15:36;18.50;;;16.60;;
17592;SDS011;8915;51.760;14.300;2023-08-20T05:18:02;17.77;;;15.83;;
17592;SDS011;8915;51.760;14.300;2023-08-20T05:20:29;18.40;;;15.37;;
17592;SDS011;8915;51.760;14.300;2023-08-20T05:22:55;18.50;;;16.60;;
17592;SDS011;8915;51.760;14.300;2023-08-20T05:25:22;19.23;;;15.53;;
17592;SDS011;8915;51.760;14.300;2023-08-20T05:27:49;18.13;;;15.50;;
17592;SDS011;8915;51.760;14.300;2023-08-20T05:30:17;15.57;;;14.07;;
17592;SDS011;8915;51.760;14.300;2023-08-20T05:32:44;18.40;;;14.95;;
17592;SDS011;8915;51.760;14.300;2023-08-20T05:35:10;16.85;;;13.65;;
17592;SDS011;8915;51.760;14.300;2023-08-20T05:37:38;16.05;;;14.35;;
17592;SDS011;8915;51.760;14.300;2023-08-20T05:40:05;15.00;;;13.45;;
17592;SDS011;8915;51.760;14.300;2023-08-20T05:42:34;14.77;;;13.27;;
17592;SDS011;8915;51.760;14.300;2023-08-20T05:45:04;18.50;;;13.93;;
17592;SDS011;8915;51.760;14.300;2023-08-20T05:47:33;15.32;;;13.73;;
17592;SDS011;8915;51.760;14.300;2023-08-20T05:50:00;14.43;;;12.95;;
17592;SDS011;8915;51.760;14.300;2023-08-20T05:52:26;15.30;;;13.15;;
17592;SDS011;8915;51.760;14.300;2023-08-20T05:54:52;14.43;;;12.93;;
17592;SDS011;8915;51.760;14.300;2023-08-20T05:57:20;14.88;;;12.45;;
17592;SDS011;8915;51.760;14.300;2023-08-20T05:59:47;16.77;;;13.07;;
17592;SDS011;8915;51.760;14.300;2023-08-20T06:02:15;14.80;;;12.93;;
17592;SDS011;8915;51.760;14.300;2023-08-20T06:04:43;13.93;;;12.43;;
17592;SDS011;8915;51.760;14.300;2023-08-20T06:07:10;13.48;;;12.07;;
17592;SDS011;8915;51.760;14.300;2023-08-20T06:09:36;15.90;;;12.20;;
17592;SDS011;8915;51.760;14.300;2023-08-20T06:12:03;13.98;;;12.50;;
17592;SDS011;8915;51.760;14.300;2023-08-20T06:14:29;13.88;;;12.43;;
17592;SDS011;8915;51.760;14.300;2023-08-20T06:16:56;13.57;;;12.18;;
17592;SDS011;8915;51.760;14.300;2023-08-20T06:19:23;13.00;;;11.70;;
17592;SDS011;8915;51.760;14.300;2023-08-20T06:21:50;12.48;;;11.18;;
17592;SDS011;8915;51.760;14.300;2023-08-20T06:24:17;12.93;;;11.57;;
17592;SDS011;8915;51.760;14.300;2023-08-20T06:26:43;13.57;;;11.90;;
17592;SDS011;8915;51.760;14.300;2023-08-20T06:29:10;13.43;;;11.85;;
17592;SDS011;8915;51.760;14.300;2023-08-20T06:31:36;15.10;;;10.98;;
17592;SDS011;8915;51.760;14.300;2023-08-20T06:34:03;13.43;;;11.23;;
17592;SDS011;8915;51.760;14.300;2023-08-20T06:36:29;12.63;;;11.32;;
17592;SDS011;8915;51.760;14.300;2023-08-20T06:38:57;14.32;;;11.27;;
17592;SDS011;8915;51.760;14.300;2023-08-20T06:41:23;12.20;;;11.00;;
17592;SDS011;8915;51.760;14.300;2023-08-20T06:43:49;11.35;;;10.13;;
17592;SDS011;8915;51.760;14.300;2023-08-20T06:46:16;10.60;;;9.50;;
17592;SDS011;8915;51.760;14.300;2023-08-20T06:48:42;10.68;;;9.57;;
17592;SDS011;8915;51.760;14.300;2023-08-20T06:51:10;11.45;;;10.13;;
17592;SDS011;8915;51.760;14.300;2023-08-20T06:53:38;10.77;;;9.68;;
17592;SDS011;8915;51.760;14.300;2023-08-20T06:56:06;12.35;;;10.13;;
17592;SDS011;8915;51.760;14.300;2023-08-20T06:58:33;10.82;;;9.32;;
17592;SDS011;8915;51.760;14.300;2023-08-20T07:00:59;11.13;;;9.82;;
17592;SDS011;8915;51.760;14.300;2023-08-20T07:03:32;12.30;;;9.35;;
17592;SDS011;8915;51.760;14.300;2023-08-20T07:05:58;11.38;;;9.65;;
17592;SDS011;8915;51.760;14.300;2023-08-20T07:08:25;14.90;;;10.73;;
17592;SDS011;8915;51.760;14.300;2023-08-20T07:10:51;11.93;;;10.18;;
17592;SDS011;8915;51.760;14.300;2023-08-20T07:13:19;13.70;;;10.65;;
17592;SDS011;8915;51.760;14.300;2023-08-20T07:15:45;10.63;;;9.50;;
17592;SDS011;8915;51.760;14.300;2023-08-20T07:18:11;11.52;;;9.85;;
17592;SDS011;8915;51.760;14.300;2023-08-20T07:20:39;11.07;;;9.98;;
17592;SDS011;8915;51.760;14.300;2023-08-20T07:23:06;10.40;;;9.25;;
17592;SDS011;8915;51.760;14.300;2023-08-20T07:25:33;11.13;;;9.93;;
17592;SDS011;8915;51.760;14.300;2023-08-20T07:28:02;13.18;;;10.48;;
17592;SDS011;8915;51.760;14.300;2023-08-20T07:30:30;11.38;;;9.77;;
17592;SDS011;8915;51.760;14.300;2023-08-20T07:32:56;9.68;;;8.77;;
17592;SDS011;8915;51.760;14.300;2023-08-20T07:35:22;10.77;;;8.90;;
17592;SDS011;8915;51.760;14.300;2023-08-20T07:37:49;10.82;;;9.23;;
17592;SDS011;8915;51.760;14.300;2023-08-20T07:40:15;11.10;;;9.55;;
17592;SDS011;8915;51.760;14.300;2023-08-20T07:42:42;13.07;;;9.75;;
17592;SDS011;8915;51.760;14.300;2023-08-20T07:45:09;10.98;;;9.60;;
17592;SDS011;8915;51.760;14.300;2023-08-20T07:47:37;11.43;;;9.02;;
17592;SDS011;8915;51.760;14.300;2023-08-20T07:50:04;10.82;;;9.35;;
17592;SDS011;8915;51.760;14.300;2023-08-20T07:52:31;12.02;;;10.77;;
17592;SDS011;8915;51.760;14.300;2023-08-20T07:54:58;9.93;;;8.93;;
17592;SDS011;8915;51.760;14.300;2023-08-20T07:57:24;10.88;;;9.50;;
17592;SDS011;8915;51.760;14.300;2023-08-20T07:59:51;10.20;;;9.05;;
17592;SDS011;8915;51.760;14.300;2023-08-20T08:02:18;9.68;;;8.60;;
17592;SDS011;8915;51.760;14.300;2023-08-20T08:04:45;11.10;;;8.80;;
17592;SDS011;8915;51.760;14.300;2023-08-20T08:07:12;9.70;;;8.68;;
17592;SDS011;8915;51.760;14.300;2023-08-20T08:09:38;10.40;;;9.05;;
17592;SDS011;8915;51.760;14.300;2023-08-20T08:12:05;11.00;;;8.55;;
17592;SDS011;8915;51.760;14.300;2023-08-20T08:14:31;12.23;;;9.25;;
17592;SDS011;8915;51.760;14.300;2023-08-20T08:16:57;10.30;;;8.70;;
17592;SDS011;8915;51.760;14.300;2023-08-20T08:19:24;10.85;;;9.15;;
17592;SDS011;8915;51.760;14.300;2023-08-20T08:21:51;9.52;;;8.50;;
17592;SDS011;8915;51.760;14.300;2023-08-20T08:24:18;10.52;;;8.95;;
17592;SDS011;8915;51.760;14.300;2023-08-20T08:26:45;9.13;;;8.10;;
17592;SDS011;8915;51.760;14.300;2023-08-20T08:29:11;10.23;;;8.50;;
17592;SDS011;8915;51.760;14.300;2023-08-20T08:31:38;9.05;;;7.80;;
17592;SDS011;8915;51.760;14.300;2023-08-20T08:34:04;11.77;;;8.73;;
17592;SDS011;8915;51.760;14.300;2023-08-20T08:36:30;9.05;;;8.10;;
17592;SDS011;8915;51.760;14.300;2023-08-20T08:38:58;9.80;;;8.85;;
17592;SDS011;8915;51.760;14.300;2023-08-20T08:41:25;9.77;;;8.10;;
17592;SDS011;8915;51.760;14.300;2023-08-20T08:43:53;9.43;;;8.50;;
17592;SDS011;8915;51.760;14.300;2023-08-20T08:46:21;10.05;;;8.43;;
17592;SDS011;8915;51.760;14.300;2023-08-20T08:48:49;9.55;;;8.55;;
17592;SDS011;8915;51.760;14.300;2023-08-20T08:51:17;9.98;;;8.98;;
17592;SDS011;8915;51.760;14.300;2023-08-20T08:53:44;11.65;;;8.70;;
17592;SDS011;8915;51.760;14.300;2023-08-20T08:56:13;9.55;;;8.50;;
17592;SDS011;8915;51.760;14.300;2023-08-20T08:58:40;9.93;;;8.10;;
17592;SDS011;8915;51.760;14.300;2023-08-20T09:01:06;9.65;;;8.27;;
17592;SDS011;8915;51.760;14.300;2023-08-20T09:03:32;9.15;;;8.25;;
17592;SDS011;8915;51.760;14.300;2023-08-20T09:06:00;8.75;;;7.95;;
17592;SDS011;8915;51.760;14.300;2023-08-20T09:08:29;8.50;;;7.55;;
17592;SDS011;8915;51.760;14.300;2023-08-20T09:10:57;9.68;;;8.43;;
17592;SDS011;8915;51.760;14.300;2023-08-20T09:13:32;9.00;;;7.95;;
17592;SDS011;8915;51.760;14.300;2023-08-20T09:15:59;10.60;;;8.23;;
17592;SDS011;8915;51.760;14.300;2023-08-20T09:18:29;8.43;;;7.63;;
17592;SDS011;8915;51.760;14.300;2023-08-20T09:20:56;8.02;;;7.22;;
17592;SDS011;8915;51.760;14.300;2023-08-20T09:23:24;9.10;;;8.20;;
17592;SDS011;8915;51.760;14.300;2023-08-20T09:25:54;9.65;;;7.65;;
17592;SDS011;8915;51.760;14.300;2023-08-20T09:28:21;8.68;;;7.72;;
17592;SDS011;8915;51.760;14.300;2023-08-20T09:30:55;10.75;;;7.40;;
17592;SDS011;8915;51.760;14.300;2023-08-20T09:33:22;8.20;;;7.22;;
17592;SDS011;8915;51.760;14.300;2023-08-20T09:35:49;7.90;;;7.20;;
17592;SDS011;8915;51.760;14.300;2023-08-20T09:38:18;9.10;;;7.25;;
17592;SDS011;8915;51.760;14.300;2023-08-20T09:40:46;8.38;;;7.47;;
17592;SDS011;8915;51.760;14.300;2023-08-20T09:43:15;8.88;;;7.68;;
17592;SDS011;8915;51.760;14.300;2023-08-20T09:45:42;8.73;;;7.60;;
17592;SDS011;8915;51.760;14.300;2023-08-20T09:48:12;7.47;;;6.70;;
17592;SDS011;8915;51.760;14.300;2023-08-20T09:50:43;8.85;;;7.95;;
17592;SDS011;8915;51.760;14.300;2023-08-20T09:53:15;7.82;;;7.03;;
17592;SDS011;8915;51.760;14.300;2023-08-20T09:55:48;8.15;;;7.35;;
17592;SDS011;8915;51.760;14.300;2023-08-20T09:58:16;8.23;;;7.00;;
17592;SDS011;8915;51.760;14.300;2023-08-20T10:00:46;8.93;;;8.02;;
17592;SDS011;8915;51.760;14.300;2023-08-20T10:03:15;8.75;;;7.45;;
17592;SDS011;8915;51.760;14.300;2023-08-20T10:05:42;8.50;;;7.60;;
17592;SDS011;8915;51.760;14.300;2023-08-20T10:08:09;8.63;;;7.65;;
17592;SDS011;8915;51.760;14.300;2023-08-20T10:10:35;8.35;;;7.15;;
17592;SDS011;8915;51.760;14.300;2023-08-20T10:13:01;8.65;;;7.78;;
17592;SDS011;8915;51.760;14.300;2023-08-20T10:15:28;8.55;;;7.68;;
17592;SDS011;8915;51.760;14.300;2023-08-20T10:17:57;8.43;;;7.57;;
17592;SDS011;8915;51.760;14.300;2023-08-20T10:20:25;10.60;;;7.93;;
17592;SDS011;8915;51.760;14.300;2023-08-20T10:22:57;9.63;;;8.00;;
17592;SDS011;8915;51.760;14.300;2023-08-20T10:25:27;8.15;;;7.32;;
17592;SDS011;8915;51.760;14.300;2023-08-20T10:27:53;9.60;;;8.35;;
17592;SDS011;8915;51.760;14.300;2023-08-20T10:30:23;8.93;;;8.02;;
17592;SDS011;8915;51.760;14.300;2023-08-20T10:32:51;9.68;;;8.35;;
17592;SDS011;8915;51.760;14.300;2023-08-20T10:35:22;8.93;;;8.02;;
17592;SDS011;8915;51.760;14.300;2023-08-20T10:38:04;9.05;;;8.15;;
17592;SDS011;8915;51.760;14.300;2023-08-20T10:43:32;9.55;;;8.20;;
17592;SDS011;8915;51.760;14.300;2023-08-20T10:46:13;10.25;;;8.07;;
17592;SDS011;8915;51.760;14.300;2023-08-20T10:48:41;12.00;;;9.35;;
17592;SDS011;8915;51.760;14.300;2023-08-20T10:51:12;10.20;;;9.20;;
17592;SDS011;8915;51.760;14.300;2023-08-20T10:53:42;10.45;;;9.45;;
17592;SDS011;8915;51.760;14.300;2023-08-20T10:56:13;11.05;;;8.93;;
17592;SDS011;8915;51.760;14.300;2023-08-20T10:58:41;10.70;;;9.60;;
17592;SDS011;8915;51.760;14.300;2023-08-20T11:01:15;11.07;;;9.15;;
17592;SDS011;8915;51.760;14.300;2023-08-20T11:03:45;11.93;;;10.15;;
17592;SDS011;8915;51.760;14.300;2023-08-20T11:06:13;11.30;;;10.20;;
17592;SDS011;8915;51.760;14.300;2023-08-20T11:08:41;12.13;;;9.88;;
17592;SDS011;8915;51.760;14.300;2023-08-20T11:11:08;9.80;;;8.88;;
17592;SDS011;8915;51.760;14.300;2023-08-20T11:13:36;12.50;;;9.55;;
17592;SDS011;8915;51.760;14.300;2023-08-20T11:16:03;10.27;;;9.27;;
17592;SDS011;8915;51.760;14.300;2023-08-20T11:18:30;10.10;;;9.10;;
17592;SDS011;8915;51.760;14.300;2023-08-20T11:20:57;9.45;;;8.52;;
17592;SDS011;8915;51.760;14.300;2023-08-20T11:23:24;11.98;;;9.32;;
17592;SDS011;8915;51.760;14.300;2023-08-20T11:25:51;10.40;;;9.15;;
17592;SDS011;8915;51.760;14.300;2023-08-20T11:28:18;9.95;;;8.95;;
17592;SDS011;8915;51.760;14.300;2023-08-20T11:30:45;10.07;;;9.00;;
17592;SDS011;8915;51.760;14.300;2023-08-20T11:33:12;11.63;;;9.00;;
17592;SDS011;8915;51.760;14.300;2023-08-20T11:35:38;9.60;;;8.70;;
17592;SDS011;8915;51.760;14.300;2023-08-20T11:38:05;9.23;;;8.32;;
17592;SDS011;8915;51.760;14.300;2023-08-20T11:40:31;9.52;;;8.48;;
17592;SDS011;8915;51.760;14.300;2023-08-20T11:42:59;9.25;;;8.25;;
17592;SDS011;8915;51.760;14.300;2023-08-20T11:45:26;9.60;;;8.50;;
17592;SDS011;8915;51.760;14.300;2023-08-20T11:47:55;8.90;;;8.10;;
17592;SDS011;8915;51.760;14.300;2023-08-20T11:50:22;9.77;;;8.55;;
17592;SDS011;8915;51.760;14.300;2023-08-20T11:52:48;9.75;;;7.72;;
17592;SDS011;8915;51.760;14.300;2023-08-20T11:55:15;9.40;;;8.20;;
17592;SDS011;8915;51.760;14.300;2023-08-20T11:57:49;9.48;;;7.57;;
17592;SDS011;8915;51.760;14.300;2023-08-20T12:00:24;8.65;;;7.85;;
17592;SDS011;8915;51.760;14.300;2023-08-20T12:02:52;8.13;;;7.32;;
17592;SDS011;8915;51.760;14.300;2023-08-20T12:05:19;9.45;;;7.75;;
17592;SDS011;8915;51.760;14.300;2023-08-20T12:07:54;10.82;;;7.72;;
17592;SDS011;8915;51.760;14.300;2023-08-20T12:10:21;8.75;;;7.47;;
17592;SDS011;8915;51.760;14.300;2023-08-20T12:12:48;8.65;;;7.32;;
17592;SDS011;8915;51.760;14.300;2023-08-20T12:15:14;12.27;;;7.13;;
17592;SDS011;8915;51.760;14.300;2023-08-20T12:17:42;7.30;;;6.05;;
17592;SDS011;8915;51.760;14.300;2023-08-20T12:20:08;8.65;;;7.75;;
17592;SDS011;8915;51.760;14.300;2023-08-20T12:22:37;7.30;;;6.60;;
17592;SDS011;8915;51.760;14.300;2023-08-20T12:25:04;6.18;;;5.45;;
17592;SDS011;8915;51.760;14.300;2023-08-20T12:27:31;5.20;;;4.70;;
17592;SDS011;8915;51.760;14.300;2023-08-20T12:29:57;8.07;;;5.32;;
17592;SDS011;8915;51.760;14.300;2023-08-20T12:32:24;8.57;;;5.72;;
17592;SDS011;8915;51.760;14.300;2023-08-20T12:34:51;6.75;;;6.07;;
17592;SDS011;8915;51.760;14.300;2023-08-20T12:37:18;8.77;;;6.20;;
17592;SDS011;8915;51.760;14.300;2023-08-20T12:39:44;6.70;;;6.00;;
17592;SDS011;8915;51.760;14.300;2023-08-20T12:42:10;6.25;;;5.35;;
17592;SDS011;8915;51.760;14.300;2023-08-20T12:44:37;6.55;;;5.88;;
17592;SDS011;8915;51.760;14.300;2023-08-20T12:47:03;6.30;;;5.65;;
17592;SDS011;8915;51.760;14.300;2023-08-20T12:49:30;5.85;;;5.35;;
17592;SDS011;8915;51.760;14.300;2023-08-20T12:51:57;5.80;;;4.38;;
17592;SDS011;8915;51.760;14.300;2023-08-20T12:54:24;5.70;;;5.15;;
17592;SDS011;8915;51.760;14.300;2023-08-20T12:56:50;7.88;;;5.25;;
17592;SDS011;8915;51.760;14.300;2023-08-20T12:59:17;5.93;;;5.30;;
17592;SDS011;8915;51.760;14.300;2023-08-20T13:01:43;8.60;;;5.30;;
17592;SDS011;8915;51.760;14.300;2023-08-20T13:04:10;6.53;;;5.60;;
17592;SDS011;8915;51.760;14.300;2023-08-20T13:06:38;7.57;;;5.95;;
17592;SDS011;8915;51.760;14.300;2023-08-20T13:09:07;6.38;;;5.47;;
17592;SDS011;8915;51.760;14.300;2023-08-20T13:11:35;7.28;;;5.70;;
17592;SDS011;8915;51.760;14.300;2023-08-20T13:14:03;6.25;;;5.65;;
17592;SDS011;8915;51.760;14.300;2023-08-20T13:16:31;7.38;;;5.60;;
17592;SDS011;8915;51.760;14.300;2023-08-20T13:18:57;9.23;;;5.15;;
17592;SDS011;8915;51.760;14.300;2023-08-20T13:21:24;7.07;;;5.40;;
17592;SDS011;8915;51.760;14.300;2023-08-20T13:23:50;7.30;;;5.32;;
17592;SDS011;8915;51.760;14.300;2023-08-20T13:26:18;6.15;;;5.32;;
17592;SDS011;8915;51.760;14.300;2023-08-20T13:28:47;5.70;;;4.63;;
17592;SDS011;8915;51.760;14.300;2023-08-20T13:31:13;6.13;;;4.90;;
17592;SDS011;8915;51.760;14.300;2023-08-20T13:33:40;6.15;;;5.07;;
17592;SDS011;8915;51.760;14.300;2023-08-20T13:36:06;4.88;;;4.40;;
17592;SDS011;8915;51.760;14.300;2023-08-20T13:38:33;7.68;;;4.97;;
17592;SDS011;8915;51.760;14.300;2023-08-20T13:40:59;5.22;;;4.72;;
17592;SDS011;8915;51.760;14.300;2023-08-20T13:43:27;9.90;;;5.25;;
17592;SDS011;8915;51.760;14.300;2023-08-20T13:45:53;6.10;;;4.80;;
17592;SDS011;8915;51.760;14.300;2023-08-20T13:48:20;4.50;;;4.10;;
17592;SDS011;8915;51.760;14.300;2023-08-20T13:50:46;4.70;;;4.20;;
17592;SDS011;8915;51.760;14.300;2023-08-20T13:53:12;9.80;;;4.70;;
17592;SDS011;8915;51.760;14.300;2023-08-20T13:55:39;4.82;;;4.43;;
17592;SDS011;8915;51.760;14.300;2023-08-20T13:58:05;5.22;;;4.20;;
17592;SDS011;8915;51.760;14.300;2023-08-20T14:00:33;4.45;;;4.03;;
17592;SDS011;8915;51.760;14.300;2023-08-20T14:03:00;7.05;;;4.43;;
17592;SDS011;8915;51.760;14.300;2023-08-20T14:05:26;9.68;;;6.00;;
17592;SDS011;8915;51.760;14.300;2023-08-20T14:07:54;4.35;;;3.95;;
17592;SDS011;8915;51.760;14.300;2023-08-20T14:10:20;4.78;;;4.20;;
17592;SDS011;8915;51.760;14.300;2023-08-20T14:12:47;5.60;;;4.65;;
17592;SDS011;8915;51.760;14.300;2023-08-20T14:15:13;5.90;;;4.63;;
17592;SDS011;8915;51.760;14.300;2023-08-20T14:17:41;4.78;;;4.28;;
17592;SDS011;8915;51.760;14.300;2023-08-20T14:20:08;4.72;;;3.85;;
17592;SDS011;8915;51.760;14.300;2023-08-20T14:22:36;4.00;;;3.60;;
17592;SDS011;8915;51.760;14.300;2023-08-20T14:25:03;5.80;;;4.00;;
17592;SDS011;8915;51.760;14.300;2023-08-20T14:27:30;4.30;;;3.85;;
17592;SDS011;8915;51.760;14.300;2023-08-20T14:29:56;5.25;;;4.25;;
17592;SDS011;8915;51.760;14.300;2023-08-20T14:32:23;5.50;;;4.32;;
17592;SDS011;8915;51.760;14.300;2023-08-20T14:34:50;4.38;;;3.90;;
17592;SDS011;8915;51.760;14.300;2023-08-20T14:37:17;4.32;;;3.95;;
17592;SDS011;8915;51.760;14.300;2023-08-20T14:39:43;4.50;;;4.00;;
17592;SDS011;8915;51.760;14.300;2023-08-20T14:42:09;4.40;;;3.70;;